createdAt,value
2022-10-26T00:01:08.689Z,70.74
2022-10-26T00:03:36.883Z,71.46
2022-10-26T00:06:20.022Z,71.81
2022-10-26T00:08:48.141Z,72.11
2022-10-26T00:11:16.191Z,72.29
2022-10-26T00:13:43.623Z,72.12
2022-10-26T00:16:14.750Z,72.34
2022-10-26T00:18:41.375Z,72.42
2022-10-26T00:21:10.270Z,72.59
2022-10-26T00:23:37.513Z,72.24
2022-10-26T00:26:04.630Z,72.36
2022-10-26T00:28:31.733Z,71.65
2022-10-26T00:31:13.653Z,71.60
2022-10-26T00:33:40.856Z,71.60
2022-10-26T00:36:09.870Z,71.79
2022-10-26T00:38:37.701Z,71.49
2022-10-26T00:41:04.615Z,71.74
2022-10-26T00:43:30.983Z,71.49
2022-10-26T00:45:59.844Z,71.77
2022-10-26T00:48:34.084Z,71.14
2022-10-26T00:51:08.310Z,71.24
2022-10-26T00:53:35.954Z,71.38
2022-10-26T00:56:03.475Z,70.95
2022-10-26T00:58:30.536Z,71.42
2022-10-26T01:00:57.029Z,71.61
2022-10-26T01:03:27.832Z,71.42
2022-10-26T01:05:58.028Z,71.07
2022-10-26T01:08:28.104Z,71.52
2022-10-26T01:10:58.283Z,71.88
2022-10-26T01:13:30.804Z,72.04
2022-10-26T01:16:22.408Z,71.65
2022-10-26T01:19:38.380Z,72.31
2022-10-26T01:22:29.302Z,72.53
2022-10-26T01:25:25.878Z,72.49
2022-10-26T01:27:54.081Z,72.25
2022-10-26T01:30:28.838Z,71.92
2022-10-26T01:33:09.278Z,72.47
2022-10-26T01:36:19.367Z,72.07
2022-10-26T01:39:04.834Z,72.23
2022-10-26T01:41:37.674Z,72.04
2022-10-26T01:44:13.834Z,71.85
2022-10-26T01:46:46.337Z,72.13
2022-10-26T01:49:17.147Z,72.08
2022-10-26T01:51:48.471Z,72.21
2022-10-26T01:54:15.407Z,72.27
2022-10-26T01:56:48.695Z,71.95
2022-10-26T02:00:01.924Z,71.75
2022-10-26T02:03:09.859Z,71.93
2022-10-26T02:06:07.743Z,71.81
2022-10-26T02:09:15.730Z,72.56
2022-10-26T02:11:51.164Z,72.92
2022-10-26T02:14:49.470Z,72.76
2022-10-26T02:17:21.768Z,73.28
2022-10-26T02:20:03.502Z,72.77
2022-10-26T02:22:40.452Z,72.85
2022-10-26T02:25:15.652Z,72.47
2022-10-26T02:27:51.051Z,72.59
2022-10-26T02:30:18.711Z,72.29
2022-10-26T02:32:52.412Z,72.24
2022-10-26T02:35:27.478Z,72.51
2022-10-26T02:37:59.560Z,72.15
2022-10-26T02:40:29.140Z,72.61
2022-10-26T02:43:03.110Z,72.69
2022-10-26T02:45:38.284Z,72.61
2022-10-26T02:48:06.014Z,73.04
2022-10-26T02:50:49.167Z,72.44
2022-10-26T02:53:27.619Z,72.40
2022-10-26T02:55:54.352Z,72.67
2022-10-26T02:58:33.412Z,72.26
2022-10-26T03:01:00.402Z,72.75
2022-10-26T03:03:26.895Z,72.27
2022-10-26T03:05:53.352Z,72.20
2022-10-26T03:08:19.847Z,72.23
2022-10-26T03:10:46.596Z,72.64
2022-10-26T03:13:13.955Z,72.00
2022-10-26T03:15:40.933Z,72.20
2022-10-26T03:18:08.048Z,72.27
2022-10-26T03:20:35.026Z,72.38
2022-10-26T03:23:01.444Z,72.51
2022-10-26T03:25:28.005Z,72.45
2022-10-26T03:28:02.621Z,72.22
2022-10-26T03:30:31.384Z,72.82
2022-10-26T03:32:58.041Z,72.48
2022-10-26T03:35:24.694Z,72.79
2022-10-26T03:37:51.674Z,72.99
2022-10-26T03:40:18.314Z,72.77
2022-10-26T03:42:44.750Z,73.01
2022-10-26T03:45:11.544Z,72.82
2022-10-26T03:47:49.166Z,72.58
2022-10-26T03:50:20.271Z,72.13
2022-10-26T03:52:48.733Z,71.68
2022-10-26T03:55:16.031Z,72.16
2022-10-26T03:57:43.931Z,72.38
2022-10-26T04:00:17.266Z,71.93
2022-10-26T04:02:49.780Z,72.17
2022-10-26T04:05:16.619Z,72.41
2022-10-26T04:07:43.539Z,72.78
2022-10-26T04:10:10.892Z,73.68
2022-10-26T04:12:38.614Z,73.24
2022-10-26T04:15:07.262Z,72.31
2022-10-26T04:17:34.415Z,72.46
2022-10-26T04:20:00.934Z,72.27
2022-10-26T04:22:27.415Z,72.22
2022-10-26T04:24:53.893Z,72.01
2022-10-26T04:27:20.311Z,71.87
2022-10-26T04:29:46.791Z,72.75
2022-10-26T04:32:13.212Z,72.99
2022-10-26T04:34:39.647Z,73.40
2022-10-26T04:37:06.106Z,73.91
2022-10-26T04:39:32.546Z,74.06
2022-10-26T04:41:58.985Z,73.77
2022-10-26T04:44:25.434Z,73.86
2022-10-26T04:46:51.887Z,73.41
2022-10-26T04:49:18.371Z,73.45
2022-10-26T04:51:44.802Z,73.36
2022-10-26T04:54:11.327Z,74.03
2022-10-26T04:56:37.888Z,73.28
2022-10-26T04:59:04.376Z,73.57
2022-10-26T05:01:31.840Z,73.61
2022-10-26T05:03:58.404Z,73.26
2022-10-26T05:06:25.115Z,73.96
2022-10-26T05:08:51.551Z,73.17
2022-10-26T05:11:18.051Z,72.83
2022-10-26T05:13:44.485Z,72.81
2022-10-26T05:16:10.939Z,72.98
2022-10-26T05:18:37.387Z,73.32
2022-10-26T05:21:03.926Z,73.35
2022-10-26T05:23:30.382Z,73.19
2022-10-26T05:25:56.898Z,73.13
2022-10-26T05:28:23.410Z,73.02
2022-10-26T05:30:49.868Z,72.94
2022-10-26T05:33:16.450Z,73.22
2022-10-26T05:35:43.261Z,74.29
2022-10-26T05:38:15.322Z,74.26
2022-10-26T05:40:49.291Z,73.80
2022-10-26T05:43:15.811Z,74.95
2022-10-26T05:45:42.370Z,74.57
2022-10-26T05:48:08.820Z,74.50
2022-10-26T05:50:35.463Z,74.10
2022-10-26T05:53:02.188Z,73.92
2022-10-26T05:55:29.210Z,73.85
2022-10-26T05:57:56.209Z,73.26
2022-10-26T06:00:27.115Z,73.64
2022-10-26T06:03:17.871Z,73.60
2022-10-26T06:05:57.299Z,73.78
2022-10-26T06:08:27.586Z,74.11
2022-10-26T06:10:56.943Z,74.29
2022-10-26T06:13:23.739Z,74.28
2022-10-26T06:16:33.578Z,73.62
2022-10-26T06:19:22.689Z,74.30
2022-10-26T06:22:17.450Z,74.70
2022-10-26T06:25:04.510Z,74.58
2022-10-26T06:27:48.064Z,75.59
2022-10-26T06:30:14.528Z,74.21
2022-10-26T06:32:46.243Z,73.97
2022-10-26T06:35:22.750Z,74.32
2022-10-26T06:37:50.907Z,74.55
2022-10-26T06:40:19.094Z,73.90
2022-10-26T06:42:46.042Z,73.62
2022-10-26T06:45:15.601Z,73.84
2022-10-26T06:47:48.007Z,74.54
2022-10-26T06:50:40.165Z,73.61
2022-10-26T06:56:13.246Z,74.00
2022-10-26T06:58:41.150Z,74.04
2022-10-26T07:01:11.444Z,74.02
2022-10-26T07:03:38.296Z,74.04
2022-10-26T07:06:06.080Z,73.43
2022-10-26T07:08:32.890Z,73.46
2022-10-26T07:10:59.412Z,72.96
2022-10-26T07:13:25.838Z,73.53
2022-10-26T07:15:52.284Z,73.51
2022-10-26T07:18:18.743Z,73.51
2022-10-26T07:20:45.197Z,72.99
2022-10-26T07:23:11.866Z,72.78
2022-10-26T07:25:40.267Z,73.15
2022-10-26T07:28:10.248Z,72.83
2022-10-26T07:30:39.706Z,72.65
2022-10-26T07:33:14.359Z,72.54
2022-10-26T07:35:41.427Z,73.21
2022-10-26T07:38:08.815Z,73.83
2022-10-26T07:40:37.054Z,73.93
2022-10-26T07:43:04.167Z,73.70
2022-10-26T07:45:30.832Z,73.28
2022-10-26T07:47:57.928Z,73.51
2022-10-26T07:50:25.384Z,73.27
2022-10-26T07:52:52.070Z,73.50
2022-10-26T07:55:19.275Z,73.59
2022-10-26T07:57:47.523Z,73.63
2022-10-26T08:00:17.528Z,73.82
2022-10-26T08:02:44.028Z,74.14
2022-10-26T08:05:10.511Z,73.99
2022-10-26T08:07:42.627Z,73.75
2022-10-26T08:10:10.957Z,73.53
2022-10-26T08:12:37.731Z,72.87
2022-10-26T08:15:05.530Z,72.96
2022-10-26T08:17:32.112Z,72.87
2022-10-26T08:19:58.994Z,73.10
2022-10-26T08:22:25.954Z,73.53
2022-10-26T08:24:52.383Z,73.78
2022-10-26T08:27:18.847Z,73.47
2022-10-26T08:29:45.339Z,73.54
2022-10-26T08:32:11.816Z,73.31
2022-10-26T08:34:38.297Z,73.12
2022-10-26T08:37:04.758Z,73.37
2022-10-26T08:39:31.213Z,73.28
2022-10-26T08:42:12.341Z,73.44
2022-10-26T08:44:47.635Z,72.84
2022-10-26T08:47:20.745Z,72.78
2022-10-26T08:50:05.634Z,72.71
2022-10-26T08:52:53.103Z,72.65
2022-10-26T08:55:28.939Z,73.41
2022-10-26T08:57:56.751Z,73.68
2022-10-26T09:00:27.045Z,73.87
2022-10-26T09:02:54.254Z,73.93
2022-10-26T09:05:43.244Z,73.59
2022-10-26T09:08:18.095Z,73.71
2022-10-26T09:11:13.474Z,73.08
2022-10-26T09:14:04.616Z,73.18
2022-10-26T09:17:22.859Z,73.62
2022-10-26T09:20:20.212Z,74.30
2022-10-26T09:23:10.434Z,74.07
2022-10-26T09:25:41.508Z,74.01
2022-10-26T09:28:17.793Z,73.97
2022-10-26T09:30:46.479Z,74.22
2022-10-26T09:33:19.819Z,74.43
2022-10-26T09:36:00.188Z,74.25
2022-10-26T09:38:41.734Z,73.96
2022-10-26T09:41:33.183Z,74.38
2022-10-26T09:44:19.108Z,73.89
2022-10-26T09:47:28.933Z,74.91
2022-10-26T09:50:06.840Z,74.26
2022-10-26T09:52:33.471Z,74.31
2022-10-26T09:54:59.979Z,74.26
2022-10-26T09:57:26.771Z,74.13
2022-10-26T09:59:55.582Z,73.64
2022-10-26T10:02:48.826Z,73.93
2022-10-26T10:05:39.065Z,74.46
2022-10-26T10:08:23.989Z,74.34
2022-10-26T10:11:03.583Z,74.10
2022-10-26T10:13:34.308Z,74.14
2022-10-26T10:16:22.942Z,73.85
2022-10-26T10:18:59.122Z,73.54
2022-10-26T10:21:39.013Z,73.40
2022-10-26T10:24:27.339Z,73.58
2022-10-26T10:27:15.465Z,73.67
2022-10-26T10:30:01.407Z,73.44
2022-10-26T10:32:35.634Z,73.71
2022-10-26T10:35:25.062Z,73.71
2022-10-26T10:37:52.598Z,73.85
2022-10-26T10:40:27.047Z,73.35
2022-10-26T10:43:11.141Z,73.35
2022-10-26T10:45:38.564Z,72.94
2022-10-26T10:48:26.078Z,72.46
2022-10-26T10:51:12.961Z,72.73
2022-10-26T10:53:50.433Z,72.75
2022-10-26T10:56:40.234Z,72.47
2022-10-26T10:59:51.239Z,71.91
2022-10-26T11:02:32.250Z,71.84
2022-10-26T11:05:35.828Z,71.73
2022-10-26T11:08:12.816Z,72.43
2022-10-26T11:10:48.538Z,72.53
2022-10-26T11:13:31.300Z,72.41
2022-10-26T11:16:05.872Z,72.12
2022-10-26T11:18:44.164Z,72.14
2022-10-26T11:21:31.565Z,71.57
2022-10-26T11:24:39.183Z,71.36
2022-10-26T11:27:20.183Z,71.86
2022-10-26T11:30:13.616Z,72.02
2022-10-26T11:33:18.127Z,71.24
2022-10-26T11:35:55.071Z,71.11
2022-10-26T11:38:56.272Z,70.64
2022-10-26T11:41:55.618Z,70.70
2022-10-26T11:44:40.999Z,71.08
2022-10-26T11:47:18.372Z,71.01
2022-10-26T11:50:02.368Z,71.00
2022-10-26T11:52:43.204Z,70.68
2022-10-26T11:55:11.564Z,70.80
2022-10-26T11:57:40.243Z,70.53
2022-10-26T12:00:27.781Z,69.36
2022-10-26T12:03:08.552Z,69.72
2022-10-26T12:05:48.395Z,69.69
2022-10-26T12:08:24.654Z,69.73
2022-10-26T12:11:19.937Z,70.39
2022-10-26T12:14:19.466Z,70.29
2022-10-26T12:16:54.770Z,70.62
2022-10-26T12:19:35.072Z,70.14
2022-10-26T12:22:02.775Z,69.96
2022-10-26T12:24:35.431Z,69.60
2022-10-26T12:27:05.125Z,68.98
2022-10-26T12:29:49.195Z,68.81
2022-10-26T12:32:30.708Z,68.55
2022-10-26T12:35:01.357Z,68.26
2022-10-26T12:37:37.698Z,68.40
2022-10-26T12:40:33.075Z,69.06
2022-10-26T12:43:14.556Z,69.28
2022-10-26T12:45:46.600Z,69.30
2022-10-26T12:48:39.800Z,69.24
2022-10-26T12:51:27.754Z,69.50
2022-10-26T12:54:03.829Z,69.69
2022-10-26T12:57:17.926Z,69.29
2022-10-26T13:00:05.771Z,70.09
2022-10-26T13:03:15.470Z,69.11
2022-10-26T13:06:23.403Z,69.39
2022-10-26T13:08:58.631Z,69.90
2022-10-26T13:11:46.059Z,69.82
2022-10-26T13:14:51.348Z,68.75
2022-10-26T13:17:31.531Z,68.34
2022-10-26T13:20:05.624Z,68.00
2022-10-26T13:22:33.252Z,68.64
2022-10-26T13:25:06.238Z,67.99
2022-10-26T13:27:32.601Z,67.33
2022-10-26T13:30:04.858Z,66.76
2022-10-26T13:32:40.089Z,66.54
2022-10-26T13:35:14.376Z,67.18
2022-10-26T13:37:49.478Z,67.59
2022-10-26T13:40:20.789Z,67.70
2022-10-26T13:43:06.015Z,66.88
2022-10-26T13:45:53.595Z,66.93
2022-10-26T13:48:35.207Z,66.65
2022-10-26T13:51:13.521Z,67.19
2022-10-26T13:53:59.811Z,67.63
2022-10-26T13:56:43.841Z,67.73
2022-10-26T13:59:13.395Z,67.25
2022-10-26T14:01:40.291Z,67.17
2022-10-26T14:04:18.547Z,66.85
2022-10-26T14:06:51.435Z,67.25
2022-10-26T14:09:20.831Z,67.54
2022-10-26T14:12:00.685Z,67.46
2022-10-26T14:14:34.339Z,66.64
2022-10-26T14:17:02.178Z,66.78
2022-10-26T14:19:33.831Z,66.69
2022-10-26T14:22:01.057Z,66.90
2022-10-26T14:24:46.845Z,67.26
2022-10-26T14:27:27.858Z,67.56
2022-10-26T14:30:21.198Z,67.40
2022-10-26T14:32:42.167Z,67.56
2022-10-26T14:35:16.116Z,67.49
2022-10-26T14:37:56.279Z,67.49
2022-10-26T14:40:29.818Z,67.50
2022-10-26T14:43:00.455Z,67.68
2022-10-26T14:45:51.578Z,67.35
2022-10-26T14:48:33.894Z,67.45
2022-10-26T14:51:25.901Z,67.85
2022-10-26T14:53:59.385Z,68.13
2022-10-26T14:56:40.646Z,68.17
2022-10-26T14:59:20.617Z,68.34
2022-10-26T15:02:02.295Z,68.23
2022-10-26T15:04:42.098Z,67.99
2022-10-26T15:07:11.511Z,68.67
2022-10-26T15:09:45.394Z,68.84
2022-10-26T15:12:36.710Z,68.61
2022-10-26T15:15:15.388Z,68.94
2022-10-26T15:17:52.085Z,69.04
2022-10-26T15:20:23.353Z,68.84
2022-10-26T15:22:57.342Z,68.88
2022-10-26T15:25:28.691Z,69.22
2022-10-26T15:28:08.642Z,69.12
2022-10-26T15:30:35.192Z,69.07
2022-10-26T15:33:21.773Z,69.14
2022-10-26T15:35:48.412Z,70.02
2022-10-26T15:38:15.437Z,69.60
2022-10-26T15:40:43.851Z,69.36
2022-10-26T15:43:12.308Z,69.84
2022-10-26T15:45:52.399Z,69.69
2022-10-26T15:48:28.988Z,69.69
2022-10-26T15:50:56.251Z,70.36
2022-10-26T15:53:30.922Z,70.50
2022-10-26T15:56:00.008Z,70.31
2022-10-26T15:58:31.119Z,70.24
2022-10-26T16:00:57.651Z,70.21
2022-10-26T16:03:26.034Z,70.29
2022-10-26T16:06:02.116Z,70.21
2022-10-26T16:08:31.493Z,70.35
2022-10-26T16:10:58.212Z,70.38
2022-10-26T16:13:24.698Z,70.50
2022-10-26T16:15:51.146Z,70.50
2022-10-26T16:18:17.609Z,70.90
2022-10-26T16:20:46.226Z,70.81
2022-10-26T16:23:13.078Z,70.91
2022-10-26T16:25:45.910Z,70.41
2022-10-26T16:28:16.562Z,70.67
2022-10-26T16:30:43.648Z,70.76
2022-10-26T16:33:10.262Z,70.84
2022-10-26T16:35:36.722Z,71.24
2022-10-26T16:38:03.390Z,71.51
2022-10-26T16:40:29.863Z,71.66
2022-10-26T16:42:56.295Z,71.93
2022-10-26T16:45:22.856Z,72.22
2022-10-26T16:47:49.812Z,71.90
2022-10-26T16:50:16.689Z,71.88
2022-10-26T16:52:43.148Z,72.24
2022-10-26T16:55:09.876Z,72.47
2022-10-26T16:57:37.490Z,72.14
2022-10-26T17:00:06.625Z,72.00
2022-10-26T17:02:33.240Z,71.93
2022-10-26T17:05:02.725Z,71.95
2022-10-26T17:07:32.560Z,72.14
2022-10-26T17:09:59.042Z,72.30
2022-10-26T17:14:58.769Z,72.33
2022-10-26T17:17:25.256Z,72.57
2022-10-26T17:19:51.701Z,72.92
2022-10-26T17:22:18.157Z,73.01
2022-10-26T17:24:44.654Z,72.73
2022-10-26T17:27:11.254Z,72.83
2022-10-26T17:29:37.733Z,72.88
2022-10-26T17:32:04.277Z,73.09
2022-10-26T17:34:30.778Z,72.94
2022-10-26T17:36:57.230Z,73.17
2022-10-26T17:39:23.733Z,73.19
2022-10-26T17:41:50.219Z,73.96
2022-10-26T17:44:16.675Z,73.78
2022-10-26T17:46:43.128Z,73.39
2022-10-26T17:49:09.584Z,73.28
2022-10-26T17:51:36.072Z,73.74
2022-10-26T17:54:02.745Z,73.58
2022-10-26T17:56:33.013Z,73.62
2022-10-26T17:59:06.036Z,73.57
2022-10-26T18:01:33.003Z,73.64
2022-10-26T18:04:00.328Z,73.54
2022-10-26T18:06:26.957Z,73.61
2022-10-26T18:08:53.615Z,73.80
2022-10-26T18:11:26.973Z,73.87
2022-10-26T18:13:58.056Z,74.14
2022-10-26T18:16:27.799Z,73.97
2022-10-26T18:19:02.742Z,74.14
2022-10-26T18:21:33.587Z,74.35
2022-10-26T18:24:00.295Z,74.53
2022-10-26T18:26:29.161Z,73.90
2022-10-26T18:28:58.023Z,74.09
2022-10-26T18:31:26.821Z,74.15
2022-10-26T18:34:02.997Z,74.08
2022-10-26T18:36:30.837Z,74.31
2022-10-26T18:38:57.456Z,74.71
2022-10-26T18:41:26.156Z,74.66
2022-10-26T18:43:58.572Z,74.37
2022-10-26T18:46:33.097Z,73.98
2022-10-26T18:49:00.728Z,74.01
2022-10-26T18:51:32.740Z,73.69
2022-10-26T18:54:00.230Z,74.05
2022-10-26T18:56:27.244Z,74.21
2022-10-26T18:58:58.372Z,73.67
2022-10-26T19:01:29.508Z,73.37
2022-10-26T19:04:02.299Z,73.25
2022-10-26T19:06:35.300Z,72.86
2022-10-26T19:09:03.648Z,73.07
2022-10-26T19:11:31.795Z,72.70
2022-10-26T19:13:58.675Z,72.95
2022-10-26T19:16:49.853Z,73.74
2022-10-26T19:19:18.778Z,74.42
2022-10-26T19:21:48.080Z,74.37
2022-10-26T19:24:21.448Z,73.82
2022-10-26T19:26:50.617Z,74.29
2022-10-26T19:29:19.062Z,74.30
2022-10-26T19:31:47.684Z,74.08
2022-10-26T19:34:15.873Z,73.95
2022-10-26T19:36:44.966Z,73.78
2022-10-26T19:39:16.458Z,73.79
2022-10-26T19:41:44.745Z,73.87
2022-10-26T19:44:12.333Z,74.05
2022-10-26T19:46:39.737Z,73.76
2022-10-26T19:49:06.905Z,73.59
2022-10-26T19:51:33.710Z,73.31
2022-10-26T19:54:03.716Z,73.12
2022-10-26T19:56:31.763Z,73.75
2022-10-26T19:58:58.388Z,73.66
2022-10-26T20:01:25.034Z,73.86
2022-10-26T20:03:52.084Z,74.23
2022-10-26T20:06:19.133Z,73.89
2022-10-26T20:08:48.712Z,74.13
2022-10-26T20:11:17.689Z,74.14
2022-10-26T20:13:46.494Z,74.11
2022-10-26T20:16:15.513Z,73.92
2022-10-26T20:18:45.739Z,73.61
2022-10-26T20:21:15.535Z,73.47
2022-10-26T20:23:43.387Z,73.45
2022-10-26T20:26:16.458Z,73.95
2022-10-26T20:28:47.716Z,74.69
2022-10-26T20:31:14.437Z,74.45
2022-10-26T20:33:40.913Z,73.99
2022-10-26T20:36:07.952Z,73.46
2022-10-26T20:38:34.996Z,73.19
2022-10-26T20:41:04.876Z,73.82
2022-10-26T20:43:35.191Z,73.68
2022-10-26T20:46:01.978Z,73.83
2022-10-26T20:48:28.832Z,73.52
2022-10-26T20:51:20.835Z,73.62
2022-10-26T20:54:03.727Z,73.63
2022-10-26T20:56:32.932Z,73.60
2022-10-26T20:59:03.018Z,72.91
2022-10-26T21:01:34.735Z,72.80
2022-10-26T21:04:03.863Z,72.93
2022-10-26T21:06:39.596Z,73.51
2022-10-26T21:09:07.239Z,73.75
2022-10-26T21:11:33.709Z,73.77
2022-10-26T21:14:00.892Z,73.31
2022-10-26T21:16:27.329Z,73.42
2022-10-26T21:18:53.805Z,73.27
2022-10-26T21:21:20.351Z,73.36
2022-10-26T21:23:46.859Z,73.91
2022-10-26T21:26:13.667Z,73.69
2022-10-26T21:28:45.670Z,73.54
2022-10-26T21:31:15.562Z,73.87
2022-10-26T21:33:42.906Z,73.02
2022-10-26T21:36:14.815Z,72.91
2022-10-26T21:38:44.601Z,73.09
2022-10-26T21:41:20.666Z,73.52
2022-10-26T21:43:59.185Z,73.55
2022-10-26T21:46:37.847Z,73.32
2022-10-26T21:49:04.884Z,73.02
2022-10-26T21:51:31.346Z,73.44
2022-10-26T21:53:58.309Z,73.75
2022-10-26T21:56:24.762Z,74.50
2022-10-26T21:58:51.337Z,74.43
2022-10-26T22:01:21.228Z,73.75
2022-10-26T22:03:49.107Z,73.92
2022-10-26T22:08:47.927Z,73.47
2022-10-26T22:11:18.556Z,73.47
2022-10-26T22:13:47.941Z,73.37
2022-10-26T22:16:20.801Z,73.39
2022-10-26T22:18:49.703Z,73.53
2022-10-26T22:21:18.838Z,73.55
2022-10-26T22:23:45.902Z,73.71
2022-10-26T22:26:16.411Z,73.45
2022-10-26T22:28:46.168Z,73.62
2022-10-26T22:31:20.482Z,73.27
2022-10-26T22:34:01.947Z,73.30
2022-10-26T22:36:32.207Z,73.25
2022-10-26T22:38:58.732Z,73.24
2022-10-26T22:41:26.010Z,73.80
2022-10-26T22:43:52.532Z,74.31
2022-10-26T22:46:28.715Z,74.27
2022-10-26T22:48:58.708Z,74.22
2022-10-26T22:51:29.369Z,74.21
2022-10-26T22:53:58.704Z,73.61
2022-10-26T22:58:58.895Z,73.81
2022-10-26T23:01:31.259Z,74.11
2022-10-26T23:03:58.345Z,74.14
2022-10-26T23:06:28.191Z,74.13
2022-10-26T23:08:54.882Z,74.39
2022-10-26T23:11:24.092Z,73.94
2022-10-26T23:14:01.013Z,74.15
2022-10-26T23:16:29.766Z,74.06
2022-10-26T23:18:57.487Z,74.23
2022-10-26T23:23:57.393Z,74.45
2022-10-26T23:26:24.295Z,73.88
2022-10-26T23:28:50.822Z,73.53
2022-10-26T23:31:21.763Z,73.13
2022-10-26T23:33:53.400Z,72.96
2022-10-26T23:36:20.325Z,72.95
2022-10-26T23:38:47.904Z,73.32
2022-10-26T23:41:15.051Z,73.39
2022-10-26T23:43:41.911Z,73.33
2022-10-26T23:46:09.047Z,73.85
2022-10-26T23:48:35.476Z,73.59
2022-10-26T23:51:02.015Z,73.21
2022-10-26T23:53:28.559Z,73.86
2022-10-26T23:55:55.053Z,74.08
2022-10-26T23:58:21.556Z,73.67
